Time;durP1;ratioP1;P1;durP2;ratioP2;P2;SDS_P1;SDS_P2;PMS_P1;PMS_P2;Temp;Humidity;BMP_temperature;BMP_pressure;BME280_temperature;BME280_humidity;BME280_pressure;Samples;Min_cycle;Max_cycle;Signal;HPM_P1;HPM_P2
2021/10/03 00:01:51;;;;;;;3.80;3.42;;;14.40;99.90;;;;;;1872930;75;21439;-74
2021/10/03 00:04:17;;;;;;;6.30;4.17;;;14.30;99.90;;;;;;1879933;74;21094;-74
2021/10/03 00:06:43;;;;;;;4.67;3.95;;;14.20;99.90;;;;;;1862661;74;21089;-74
2021/10/03 00:09:09;;;;;;;5.37;4.35;;;14.20;99.90;;;;;;1879658;74;21055;-74
2021/10/03 00:11:36;;;;;;;5.67;3.52;;;14.20;99.90;;;;;;1861904;74;21089;-74
2021/10/03 00:14:02;;;;;;;4.92;4.25;;;14.20;99.90;;;;;;1878109;75;21074;-74
2021/10/03 00:16:28;;;;;;;5.42;4.00;;;14.00;99.90;;;;;;1879596;74;21087;-74
2021/10/03 00:18:54;;;;;;;4.00;3.52;;;14.10;99.90;;;;;;1868100;75;21170;-74
2021/10/03 00:21:20;;;;;;;6.45;3.58;;;14.00;99.90;;;;;;1871481;75;21081;-74
2021/10/03 00:23:48;;;;;;;7.83;4.47;;;14.00;99.90;;;;;;1866672;74;21093;-74
2021/10/03 00:26:14;;;;;;;8.18;3.80;;;13.80;99.90;;;;;;1873896;75;21159;-74
2021/10/03 00:28:40;;;;;;;3.77;3.42;;;13.80;99.90;;;;;;1853453;76;21067;-74
2021/10/03 00:31:06;;;;;;;5.50;3.50;;;13.90;99.90;;;;;;1847081;76;21129;-74
2021/10/03 00:33:34;;;;;;;4.28;3.50;;;13.80;99.90;;;;;;1883976;75;21077;-74
2021/10/03 00:36:00;;;;;;;6.78;4.33;;;13.80;99.90;;;;;;1830962;76;21305;-74
2021/10/03 00:38:26;;;;;;;4.40;3.52;;;13.80;99.90;;;;;;1884557;75;21185;-74
2021/10/03 00:40:53;;;;;;;4.60;3.65;;;13.80;99.90;;;;;;1843819;76;21164;-74
2021/10/03 00:43:19;;;;;;;4.35;3.67;;;13.70;99.90;;;;;;1871243;75;21101;-74
2021/10/03 00:45:45;;;;;;;6.45;3.98;;;13.80;99.90;;;;;;1843583;75;21089;-74
2021/10/03 00:48:11;;;;;;;3.85;2.92;;;13.80;99.90;;;;;;1876616;75;21058;-73
2021/10/03 00:50:37;;;;;;;9.05;3.83;;;13.70;99.90;;;;;;1850915;76;21097;-74
2021/10/03 00:53:03;;;;;;;4.33;3.80;;;13.70;99.90;;;;;;1828245;75;21101;-74
2021/10/03 00:55:30;;;;;;;5.90;4.12;;;13.70;99.90;;;;;;1853044;75;21172;-74
2021/10/03 00:57:56;;;;;;;4.50;3.58;;;13.70;99.90;;;;;;1875633;75;21172;-74
2021/10/03 01:00:22;;;;;;;3.98;3.58;;;13.70;99.90;;;;;;1845537;76;21108;-74
2021/10/03 01:02:48;;;;;;;4.85;3.60;;;13.60;99.90;;;;;;1845143;76;21499;-74
2021/10/03 01:05:14;;;;;;;3.95;3.60;;;13.60;99.90;;;;;;1832196;76;21519;-74
2021/10/03 01:07:40;;;;;;;5.65;3.90;;;13.70;99.90;;;;;;1829696;76;21481;-74
2021/10/03 01:10:06;;;;;;;6.08;3.72;;;13.70;99.90;;;;;;1846152;76;21060;-74
2021/10/03 01:12:34;;;;;;;5.08;3.75;;;13.70;99.90;;;;;;1838886;76;21100;-74
2021/10/03 01:15:00;;;;;;;5.62;3.92;;;13.70;99.90;;;;;;1838400;76;21535;-74
2021/10/03 01:17:26;;;;;;;9.53;4.37;;;13.70;99.90;;;;;;1838706;76;21491;-74
2021/10/03 01:19:52;;;;;;;4.85;3.83;;;13.80;99.90;;;;;;1852511;76;21492;-75
2021/10/03 01:22:18;;;;;;;5.97;4.28;;;13.90;99.90;;;;;;1833915;77;21076;-76
2021/10/03 01:24:44;;;;;;;5.05;3.80;;;13.80;99.90;;;;;;1842377;76;21101;-76
2021/10/03 01:27:10;;;;;;;6.10;4.35;;;13.80;99.90;;;;;;1867168;75;21216;-76
2021/10/03 01:29:37;;;;;;;7.15;4.08;;;13.90;99.90;;;;;;1845681;76;21095;-75
2021/10/03 01:32:03;;;;;;;4.25;3.77;;;13.80;99.90;;;;;;1846863;75;21594;-75
2021/10/03 01:34:29;;;;;;;6.97;3.90;;;13.80;99.90;;;;;;1844717;77;21593;-75
2021/10/03 01:36:55;;;;;;;4.42;3.62;;;13.90;99.90;;;;;;1836703;76;21496;-75
2021/10/03 01:39:21;;;;;;;4.45;3.62;;;13.90;99.90;;;;;;1846806;76;21582;-76
2021/10/03 01:41:48;;;;;;;6.28;3.58;;;13.90;99.90;;;;;;1846955;77;21064;-75
2021/10/03 01:44:14;;;;;;;4.12;3.58;;;14.00;99.90;;;;;;1848821;76;21095;-75
2021/10/03 01:46:41;;;;;;;4.03;3.62;;;14.00;99.90;;;;;;1841931;76;21177;-76
2021/10/03 01:49:08;;;;;;;4.25;3.62;;;13.90;99.90;;;;;;1842139;77;21230;-76
2021/10/03 01:51:34;;;;;;;6.72;4.00;;;14.10;99.90;;;;;;1834151;76;21099;-75
2021/10/03 01:54:00;;;;;;;4.33;3.52;;;14.20;99.90;;;;;;1836433;76;21068;-75
2021/10/03 01:56:26;;;;;;;8.13;3.65;;;14.10;99.90;;;;;;1832802;76;21095;-75
2021/10/03 01:58:52;;;;;;;4.65;3.40;;;14.00;99.90;;;;;;1837182;76;21162;-75
2021/10/03 02:01:18;;;;;;;4.95;3.42;;;14.10;99.90;;;;;;1832477;76;21105;-75
2021/10/03 02:03:44;;;;;;;3.70;3.30;;;14.20;99.90;;;;;;1837610;76;21064;-75
2021/10/03 02:06:10;;;;;;;4.92;3.65;;;14.20;99.90;;;;;;1837813;76;21173;-75
2021/10/03 02:08:37;;;;;;;5.08;3.70;;;14.10;99.90;;;;;;1840814;75;21158;-75
2021/10/03 02:11:03;;;;;;;4.15;3.75;;;13.90;99.90;;;;;;1829683;77;21104;-75
2021/10/03 02:13:29;;;;;;;7.47;3.77;;;13.90;99.90;;;;;;1847035;76;21063;-75
2021/10/03 02:15:55;;;;;;;7.83;3.72;;;14.10;99.90;;;;;;1853376;76;21100;-76
2021/10/03 02:18:21;;;;;;;3.83;3.42;;;14.00;99.90;;;;;;1840118;75;21170;-76
2021/10/03 02:20:47;;;;;;;14.03;3.87;;;14.00;99.90;;;;;;1848073;76;21110;-75
2021/10/03 02:23:13;;;;;;;3.83;3.37;;;14.10;99.90;;;;;;1874965;75;21211;-75
2021/10/03 02:25:48;;;;;;;5.03;3.50;;;14.00;99.90;;;;;;1844016;76;21105;-75
2021/10/03 02:28:07;;;;;;;6.58;3.40;;;13.90;99.90;;;;;;1865069;75;21081;-74
2021/10/03 02:30:33;;;;;;;4.78;3.02;;;14.00;99.90;;;;;;1835191;76;21094;-74
2021/10/03 02:32:59;;;;;;;3.22;2.92;;;14.10;99.90;;;;;;1871784;75;21077;-75
2021/10/03 02:35:26;;;;;;;3.47;3.05;;;14.00;99.90;;;;;;1845822;76;21188;-75
2021/10/03 02:37:52;;;;;;;5.08;3.10;;;14.00;99.90;;;;;;1832627;76;21171;-74
2021/10/03 02:40:18;;;;;;;4.15;3.02;;;14.00;99.90;;;;;;1841394;76;21095;-76
2021/10/03 02:42:44;;;;;;;3.65;3.20;;;14.00;99.90;;;;;;1840153;75;21099;-75
2021/10/03 02:45:10;;;;;;;4.25;2.90;;;14.00;99.90;;;;;;1822518;76;21097;-75
2021/10/03 02:47:36;;;;;;;3.85;3.00;;;13.90;99.90;;;;;;1828974;76;21097;-74
2021/10/03 02:50:02;;;;;;;5.05;2.95;;;14.00;99.90;;;;;;1849241;76;21189;-75
2021/10/03 02:52:28;;;;;;;5.00;3.65;;;13.90;99.90;;;;;;1831086;76;21093;-74
2021/10/03 02:54:55;;;;;;;3.95;3.20;;;13.80;99.90;;;;;;1840186;76;21107;-74
2021/10/03 02:57:21;;;;;;;5.80;3.37;;;13.80;99.90;;;;;;1836833;76;21104;-75
2021/10/03 02:59:48;;;;;;;3.55;3.02;;;13.80;99.90;;;;;;1842439;76;21219;-75
2021/10/03 03:02:14;;;;;;;4.33;2.92;;;13.80;99.90;;;;;;1834699;76;21068;-75
2021/10/03 03:04:40;;;;;;;6.50;3.30;;;13.90;99.90;;;;;;1847391;76;21096;-75
2021/10/03 03:07:06;;;;;;;7.53;3.27;;;13.80;99.90;;;;;;1847499;76;21178;-75
2021/10/03 03:09:32;;;;;;;5.28;3.40;;;13.70;99.90;;;;;;1844393;76;21175;-75
2021/10/03 03:11:58;;;;;;;4.87;3.12;;;13.80;99.90;;;;;;1829198;76;21073;-75
2021/10/03 03:14:24;;;;;;;4.80;3.58;;;13.70;99.90;;;;;;1841094;76;21524;-75
2021/10/03 03:16:50;;;;;;;4.35;3.00;;;13.70;99.90;;;;;;1842843;75;21493;-75
2021/10/03 03:19:17;;;;;;;4.12;3.50;;;13.70;99.90;;;;;;1845956;76;21508;-75
2021/10/03 03:21:43;;;;;;;4.12;3.60;;;13.70;99.90;;;;;;1835692;76;21461;-75
2021/10/03 03:24:09;;;;;;;4.87;3.30;;;13.60;99.90;;;;;;1840460;76;21605;-76
2021/10/03 03:26:35;;;;;;;4.37;2.90;;;13.60;99.90;;;;;;1845561;76;21102;-75
2021/10/03 03:29:02;;;;;;;4.35;2.80;;;13.40;99.90;;;;;;1833714;76;21181;-74
2021/10/03 03:31:28;;;;;;;5.08;2.75;;;13.50;99.90;;;;;;1851701;77;21174;-74
2021/10/03 03:33:54;;;;;;;5.53;3.35;;;13.50;99.90;;;;;;1837397;76;21173;-74
2021/10/03 03:36:20;;;;;;;4.55;3.72;;;13.50;99.90;;;;;;1829721;76;21104;-75
2021/10/03 03:38:46;;;;;;;3.83;3.42;;;13.40;99.90;;;;;;1835133;76;21241;-75
2021/10/03 03:41:12;;;;;;;5.17;3.75;;;13.40;99.90;;;;;;1828130;76;21182;-75
2021/10/03 03:43:38;;;;;;;6.28;3.52;;;13.20;99.90;;;;;;1839723;76;21161;-75
2021/10/03 03:46:04;;;;;;;4.62;3.77;;;13.20;99.90;;;;;;1841718;76;21188;-75
2021/10/03 03:48:31;;;;;;;7.37;3.80;;;13.30;99.90;;;;;;1848057;76;21166;-75
2021/10/03 03:50:57;;;;;;;5.15;3.60;;;13.30;99.90;;;;;;1838394;76;21217;-75
2021/10/03 03:53:23;;;;;;;5.58;3.75;;;13.30;99.90;;;;;;1841405;76;21101;-75
2021/10/03 03:55:49;;;;;;;6.87;3.50;;;13.30;99.90;;;;;;1838001;76;21095;-76
2021/10/03 03:58:15;;;;;;;4.72;3.55;;;13.20;99.90;;;;;;1843950;76;21092;-76
2021/10/03 04:00:41;;;;;;;4.87;3.90;;;13.30;99.90;;;;;;1843432;76;21177;-74
2021/10/03 04:03:07;;;;;;;4.20;3.27;;;13.20;99.90;;;;;;1840115;77;21154;-74
2021/10/03 04:05:33;;;;;;;5.75;3.05;;;13.30;99.90;;;;;;1839848;77;21096;-75
2021/10/03 04:08:00;;;;;;;5.67;3.65;;;13.30;99.90;;;;;;1840775;76;21099;-75
2021/10/03 04:10:26;;;;;;;3.42;3.08;;;13.20;99.90;;;;;;1828950;76;21097;-75
2021/10/03 04:12:52;;;;;;;3.17;2.83;;;13.20;99.90;;;;;;1836367;76;21068;-75
2021/10/03 04:15:18;;;;;;;3.30;3.00;;;13.10;99.90;;;;;;1835225;76;21096;-75
2021/10/03 04:17:44;;;;;;;4.60;3.20;;;13.10;99.90;;;;;;1837729;76;21107;-75
2021/10/03 04:20:10;;;;;;;7.50;3.20;;;13.10;99.90;;;;;;1837165;76;21227;-75
2021/10/03 04:22:37;;;;;;;3.98;2.90;;;13.00;99.90;;;;;;1860230;76;21104;-75
2021/10/03 04:25:03;;;;;;;4.50;2.87;;;13.00;99.90;;;;;;1841313;76;21069;-75
2021/10/03 04:27:29;;;;;;;4.15;3.20;;;12.90;99.90;;;;;;1828020;76;21199;-75
2021/10/03 04:29:55;;;;;;;4.42;3.00;;;13.00;99.90;;;;;;1844106;76;21101;-75
2021/10/03 04:32:21;;;;;;;3.22;2.92;;;13.00;99.90;;;;;;1879953;74;21203;-76
2021/10/03 04:34:47;;;;;;;5.85;4.12;;;13.00;99.90;;;;;;1843531;76;21073;-75
2021/10/03 04:37:13;;;;;;;9.50;3.27;;;12.90;99.90;;;;;;1842363;76;21096;-75
2021/10/03 04:39:39;;;;;;;4.37;3.02;;;12.90;99.90;;;;;;1829797;76;21166;-75
2021/10/03 04:42:06;;;;;;;4.08;3.02;;;13.00;99.90;;;;;;1833706;76;21092;-75
2021/10/03 04:44:32;;;;;;;6.00;3.20;;;12.90;99.90;;;;;;1842778;76;21079;-74
2021/10/03 04:46:58;;;;;;;3.10;2.85;;;12.90;99.90;;;;;;1844660;76;21098;-76
2021/10/03 04:49:24;;;;;;;2.80;2.60;;;13.00;99.90;;;;;;1882662;74;21211;-76
2021/10/03 04:51:50;;;;;;;3.47;3.08;;;12.80;99.90;;;;;;1838201;76;21106;-76
2021/10/03 04:54:16;;;;;;;7.50;3.45;;;12.90;99.90;;;;;;1878887;75;21207;-76
2021/10/03 04:56:42;;;;;;;8.65;3.37;;;12.80;99.90;;;;;;1836958;76;21106;-76
2021/10/03 04:59:08;;;;;;;10.70;2.98;;;12.80;99.90;;;;;;1843499;76;21104;-75
2021/10/03 05:01:35;;;;;;;3.33;2.83;;;12.80;99.90;;;;;;1840531;76;21112;-77
2021/10/03 05:04:01;;;;;;;3.70;2.90;;;12.70;99.90;;;;;;1879548;75;21077;-76
2021/10/03 05:06:27;;;;;;;5.58;3.35;;;12.70;99.90;;;;;;1849550;76;21253;-76
2021/10/03 05:08:53;;;;;;;3.47;3.10;;;12.70;99.90;;;;;;1842336;76;21570;-76
2021/10/03 05:11:20;;;;;;;3.12;2.83;;;12.80;99.90;;;;;;1848224;75;21108;-76
2021/10/03 05:13:46;;;;;;;3.75;2.85;;;12.80;99.90;;;;;;1832103;76;21115;-76
2021/10/03 05:16:12;;;;;;;2.72;2.52;;;12.70;99.90;;;;;;1838102;76;21117;-76
2021/10/03 05:18:39;;;;;;;7.28;3.60;;;12.70;99.90;;;;;;1833319;76;21550;-76
2021/10/03 05:21:05;;;;;;;3.90;3.25;;;12.70;99.90;;;;;;1846073;76;21349;-76
2021/10/03 05:23:31;;;;;;;5.47;3.47;;;12.80;99.90;;;;;;1848301;76;21103;-76
2021/10/03 05:25:57;;;;;;;3.98;2.80;;;12.80;99.90;;;;;;1843818;77;21161;-75
2021/10/03 05:28:23;;;;;;;3.17;2.75;;;12.90;99.90;;;;;;1843699;76;21181;-76
2021/10/03 05:30:49;;;;;;;5.55;2.85;;;13.00;99.90;;;;;;1831481;76;21162;-74
2021/10/03 05:33:15;;;;;;;4.15;3.15;;;12.90;99.90;;;;;;1836837;76;21104;-74
2021/10/03 05:35:42;;;;;;;6.28;2.80;;;12.90;99.90;;;;;;1845996;76;21179;-73
2021/10/03 05:38:08;;;;;;;3.72;3.10;;;13.10;99.90;;;;;;1841180;76;21099;-74
2021/10/03 05:40:34;;;;;;;2.85;2.58;;;13.00;99.90;;;;;;1845595;75;21178;-74
2021/10/03 05:43:00;;;;;;;3.83;2.65;;;13.00;99.90;;;;;;1837808;76;21103;-74
2021/10/03 05:45:26;;;;;;;3.47;3.17;;;13.20;99.90;;;;;;1843678;76;21174;-76
2021/10/03 05:47:52;;;;;;;4.97;3.20;;;13.20;99.90;;;;;;1840391;76;21095;-75
2021/10/03 05:50:18;;;;;;;4.05;3.30;;;13.20;99.90;;;;;;1840576;76;21474;-76
2021/10/03 05:52:44;;;;;;;3.58;3.08;;;13.10;99.90;;;;;;1831446;76;21100;-74
2021/10/03 05:55:11;;;;;;;5.70;3.35;;;13.30;99.90;;;;;;1851193;76;21099;-75
2021/10/03 05:57:37;;;;;;;5.60;4.00;;;13.40;99.90;;;;;;1839506;76;21210;-75
2021/10/03 06:00:03;;;;;;;3.50;3.20;;;13.50;99.90;;;;;;1843724;77;21064;-75
2021/10/03 06:02:29;;;;;;;3.27;2.90;;;13.40;99.90;;;;;;1839317;76;21088;-75
2021/10/03 06:04:55;;;;;;;3.70;2.75;;;13.60;99.90;;;;;;1839759;76;21169;-75
2021/10/03 06:07:21;;;;;;;7.87;3.25;;;13.60;99.90;;;;;;1837428;76;21166;-75
2021/10/03 06:09:47;;;;;;;3.83;3.10;;;13.60;99.90;;;;;;1832073;76;21064;-77
2021/10/03 06:12:13;;;;;;;5.97;3.40;;;13.70;99.90;;;;;;1848354;76;21157;-76
2021/10/03 06:14:40;;;;;;;4.80;3.35;;;13.80;99.90;;;;;;1844574;76;21181;-75
2021/10/03 06:17:06;;;;;;;3.40;3.02;;;13.90;99.90;;;;;;1839096;75;21104;-75
2021/10/03 06:19:32;;;;;;;5.95;3.58;;;13.90;99.90;;;;;;1850880;77;21060;-75
2021/10/03 06:22:00;;;;;;;3.25;2.95;;;14.10;99.90;;;;;;1841653;75;21564;-73
2021/10/03 06:24:26;;;;;;;5.25;4.25;;;14.00;99.90;;;;;;1854637;76;21135;-73
2021/10/03 06:26:52;;;;;;;3.87;3.47;;;14.10;99.90;;;;;;1842721;76;21167;-74
2021/10/03 06:29:18;;;;;;;5.15;3.60;;;14.10;99.90;;;;;;1842537;75;21067;-73
2021/10/03 06:31:44;;;;;;;7.60;3.72;;;14.10;99.90;;;;;;1851239;76;21162;-75
2021/10/03 06:34:10;;;;;;;7.17;3.42;;;14.30;99.90;;;;;;1844771;76;21252;-75
2021/10/03 06:36:36;;;;;;;4.42;3.25;;;14.40;99.90;;;;;;1839112;77;21160;-75
2021/10/03 06:39:02;;;;;;;4.53;4.05;;;14.50;99.90;;;;;;1854261;76;21067;-75
2021/10/03 06:41:29;;;;;;;6.50;3.85;;;14.60;99.90;;;;;;1836488;77;21593;-76
2021/10/03 06:43:55;;;;;;;4.90;3.92;;;14.90;99.90;;;;;;1843119;75;21562;-75
2021/10/03 06:46:21;;;;;;;5.40;3.12;;;14.80;99.90;;;;;;1830835;76;21604;-73
2021/10/03 06:48:47;;;;;;;5.25;3.42;;;15.00;99.90;;;;;;1834604;76;21089;-74
2021/10/03 06:51:14;;;;;;;3.40;2.98;;;15.30;99.90;;;;;;1822296;76;21100;-75
2021/10/03 06:53:40;;;;;;;5.35;2.80;;;15.30;99.90;;;;;;1829209;76;21109;-75
2021/10/03 06:56:06;;;;;;;4.42;3.30;;;15.60;99.90;;;;;;1843543;76;21107;-74
2021/10/03 06:58:33;;;;;;;5.30;3.00;;;15.70;99.90;;;;;;1839120;76;21182;-75
2021/10/03 07:01:00;;;;;;;4.40;3.30;;;15.80;99.90;;;;;;1830961;76;21183;-76
2021/10/03 07:03:26;;;;;;;4.15;3.47;;;15.90;99.90;;;;;;1836474;76;21179;-76
2021/10/03 07:05:52;;;;;;;3.90;2.75;;;16.20;99.90;;;;;;1834395;76;21104;-75
2021/10/03 07:08:18;;;;;;;4.62;3.25;;;16.30;99.90;;;;;;1845521;76;21209;-76
2021/10/03 07:10:45;;;;;;;5.30;3.33;;;16.40;99.90;;;;;;1839115;76;21096;-75
2021/10/03 07:13:11;;;;;;;7.17;3.35;;;16.40;99.90;;;;;;1843546;76;21520;-76
2021/10/03 07:15:37;;;;;;;3.58;3.10;;;16.50;99.90;;;;;;1842503;76;21581;-75
2021/10/03 07:18:04;;;;;;;4.28;3.10;;;16.70;99.90;;;;;;1841703;76;21436;-76
2021/10/03 07:20:30;;;;;;;3.75;2.70;;;16.80;99.90;;;;;;1852258;76;21499;-77
2021/10/03 07:22:56;;;;;;;6.33;3.10;;;16.80;99.90;;;;;;1903575;73;21498;-76
2021/10/03 07:25:23;;;;;;;3.95;2.62;;;16.70;99.90;;;;;;1904080;73;21149;-75
2021/10/03 07:27:49;;;;;;;6.60;2.60;;;16.70;99.90;;;;;;1906457;74;21052;-77
2021/10/03 07:30:16;;;;;;;3.35;2.50;;;16.90;99.90;;;;;;1907237;73;21082;-78
2021/10/03 07:32:42;;;;;;;3.90;2.42;;;17.00;99.90;;;;;;1890377;73;21081;-78
2021/10/03 07:35:08;;;;;;;5.20;2.98;;;16.90;99.90;;;;;;1903271;74;21139;-78
2021/10/03 07:37:34;;;;;;;6.37;2.72;;;16.90;99.90;;;;;;1902814;73;21056;-76
2021/10/03 07:40:02;;;;;;;4.47;3.77;;;17.00;99.90;;;;;;1902307;74;21083;-77
2021/10/03 07:42:28;;;;;;;3.58;2.25;;;17.00;99.90;;;;;;1908446;73;21629;-77
2021/10/03 07:44:54;;;;;;;4.42;2.55;;;16.90;99.90;;;;;;1913210;74;21479;-75
2021/10/03 07:47:20;;;;;;;6.35;3.52;;;17.00;99.90;;;;;;1898127;73;21429;-75
2021/10/03 07:49:46;;;;;;;8.38;3.62;;;17.10;99.90;;;;;;1893176;73;21548;-76
2021/10/03 07:52:12;;;;;;;4.65;3.20;;;17.10;99.90;;;;;;1900426;73;21500;-76
2021/10/03 07:54:39;;;;;;;4.58;3.30;;;17.20;99.90;;;;;;1899517;75;21161;-75
2021/10/03 07:57:05;;;;;;;6.85;3.50;;;17.10;99.90;;;;;;1910638;74;21049;-74
2021/10/03 07:59:31;;;;;;;5.90;3.58;;;17.10;99.90;;;;;;1903108;73;21084;-76
2021/10/03 08:01:57;;;;;;;5.28;3.60;;;17.10;99.90;;;;;;1899961;74;21289;-75
2021/10/03 08:04:24;;;;;;;4.65;3.67;;;17.10;99.90;;;;;;1898904;73;21090;-76
2021/10/03 08:06:50;;;;;;;5.25;3.47;;;17.20;99.90;;;;;;1886413;74;21084;-75
2021/10/03 08:09:16;;;;;;;3.95;3.30;;;17.40;99.90;;;;;;1906696;73;21081;-75
2021/10/03 08:11:42;;;;;;;3.22;2.83;;;17.40;99.90;;;;;;1907178;74;21136;-76
2021/10/03 08:14:08;;;;;;;6.33;2.90;;;17.50;99.90;;;;;;1918386;73;21160;-77
2021/10/03 08:16:34;;;;;;;5.00;3.02;;;17.40;99.90;;;;;;1895184;73;21103;-77
2021/10/03 08:19:00;;;;;;;2.83;2.55;;;17.40;99.90;;;;;;1905234;74;21075;-77
2021/10/03 08:21:26;;;;;;;4.62;2.90;;;17.40;99.90;;;;;;1897064;73;21528;-77
2021/10/03 08:23:53;;;;;;;4.80;2.92;;;17.60;99.90;;;;;;1903176;73;21520;-83
2021/10/03 08:26:19;;;;;;;4.42;3.00;;;17.70;99.90;;;;;;1902071;73;21453;-76
2021/10/03 08:28:45;;;;;;;4.72;3.15;;;17.80;99.90;;;;;;1922202;73;21067;-76
2021/10/03 08:31:11;;;;;;;4.95;3.08;;;17.50;99.90;;;;;;1905820;74;21130;-76
2021/10/03 08:33:37;;;;;;;5.00;3.05;;;17.40;99.90;;;;;;1911292;73;21159;-75
2021/10/03 08:36:03;;;;;;;4.12;3.20;;;17.40;99.90;;;;;;1914722;73;21086;-73
2021/10/03 08:38:29;;;;;;;7.35;3.12;;;17.50;99.90;;;;;;1907530;73;21135;-77
2021/10/03 08:40:55;;;;;;;3.52;2.55;;;17.60;99.90;;;;;;1913042;73;21090;-75
2021/10/03 08:43:22;;;;;;;3.30;2.80;;;17.70;99.90;;;;;;1900531;74;21073;-76
2021/10/03 08:45:49;;;;;;;7.33;3.08;;;17.80;99.90;;;;;;1911002;74;21154;-74
2021/10/03 08:48:16;;;;;;;4.37;3.35;;;17.70;99.90;;;;;;1903908;73;21111;-80
2021/10/03 08:50:42;;;;;;;5.03;3.20;;;17.70;99.90;;;;;;1899622;74;21147;-79
2021/10/03 08:53:08;;;;;;;5.12;2.95;;;17.80;99.90;;;;;;1912824;73;21149;-77
2021/10/03 08:55:34;;;;;;;4.47;2.90;;;18.10;99.90;;;;;;1879081;75;21298;-77
2021/10/03 08:58:00;;;;;;;5.45;3.22;;;18.40;99.90;;;;;;1842209;76;21231;-81
2021/10/03 09:00:27;;;;;;;3.80;2.92;;;18.50;99.90;;;;;;1829221;76;21188;-78
2021/10/03 09:02:53;;;;;;;3.58;3.25;;;18.50;99.90;;;;;;1824469;76;21100;-79
2021/10/03 09:05:19;;;;;;;3.22;2.87;;;18.60;99.90;;;;;;1832011;76;21167;-78
2021/10/03 09:07:45;;;;;;;6.40;3.10;;;18.70;99.90;;;;;;1841880;77;21100;-78
2021/10/03 09:10:11;;;;;;;4.30;2.92;;;18.90;99.90;;;;;;1843156;77;21076;-79
2021/10/03 09:12:37;;;;;;;3.70;3.00;;;19.00;99.90;;;;;;1843267;77;21099;-78
2021/10/03 09:15:04;;;;;;;6.20;2.98;;;19.00;99.90;;;;;;1848088;77;21095;-77
2021/10/03 09:17:30;;;;;;;4.92;2.72;;;18.90;99.90;;;;;;1834503;77;21182;-79
2021/10/03 09:19:57;;;;;;;3.95;3.02;;;18.90;99.90;;;;;;1829280;77;21168;-78
2021/10/03 09:22:23;;;;;;;4.65;3.00;;;19.00;99.90;;;;;;1818264;77;21108;-78
2021/10/03 09:24:50;;;;;;;5.95;3.15;;;18.90;99.90;;;;;;1835958;77;21086;-78
2021/10/03 09:27:16;;;;;;;3.58;2.45;;;19.10;99.90;;;;;;1838674;76;21112;-79
2021/10/03 09:29:42;;;;;;;4.87;2.83;;;19.30;99.90;;;;;;1838161;77;21065;-79
2021/10/03 09:32:08;;;;;;;3.12;2.33;;;19.40;99.90;;;;;;1830146;77;21100;-78
2021/10/03 09:34:34;;;;;;;4.47;2.55;;;19.60;99.90;;;;;;1829026;77;21099;-77
2021/10/03 09:37:00;;;;;;;3.62;2.62;;;19.70;99.90;;;;;;1825963;76;21113;-77
2021/10/03 09:39:26;;;;;;;4.20;2.25;;;19.80;99.90;;;;;;1902767;73;21036;-78
2021/10/03 09:41:52;;;;;;;4.95;2.42;;;19.80;99.90;;;;;;1902638;74;21152;-78
2021/10/03 09:44:19;;;;;;;4.03;2.58;;;19.70;99.90;;;;;;1888069;74;21083;-77
2021/10/03 09:46:45;;;;;;;3.25;2.33;;;19.70;99.90;;;;;;1902633;74;21506;-84
2021/10/03 09:49:11;;;;;;;3.87;2.50;;;19.90;99.90;;;;;;1898485;74;21196;-83
2021/10/03 09:51:37;;;;;;;6.28;2.80;;;20.10;99.90;;;;;;1896658;74;21201;-81
2021/10/03 09:54:03;;;;;;;3.65;2.65;;;20.10;99.90;;;;;;1894858;74;21073;-83
2021/10/03 09:56:31;;;;;;;4.50;3.22;;;20.00;99.90;;;;;;1905160;74;21082;-83
2021/10/03 09:58:57;;;;;;;2.70;2.45;;;20.00;99.90;;;;;;1900077;74;21442;-86
2021/10/03 10:01:23;;;;;;;5.65;2.85;;;19.80;99.90;;;;;;1901376;74;21545;-83
2021/10/03 10:03:50;;;;;;;4.37;2.50;;;19.60;99.90;;;;;;1887143;74;21074;-83
2021/10/03 10:06:17;;;;;;;6.28;3.40;;;19.70;99.90;;;;;;1892951;74;21087;-79
2021/10/03 10:08:43;;;;;;;3.47;2.55;;;19.60;99.90;;;;;;1905667;74;21083;-78
2021/10/03 10:11:09;;;;;;;3.75;2.80;;;19.70;99.90;;;;;;1893816;74;21169;-79
2021/10/03 10:13:35;;;;;;;4.65;2.30;;;19.60;99.90;;;;;;1909546;74;21082;-79
2021/10/03 10:16:01;;;;;;;3.25;2.22;;;19.80;99.90;;;;;;1897763;74;21291;-79
2021/10/03 10:18:29;;;;;;;3.83;2.20;;;19.80;99.90;;;;;;1900345;74;21133;-77
2021/10/03 10:20:56;;;;;;;8.88;2.47;;;19.80;99.90;;;;;;1891588;74;21086;-77
2021/10/03 10:23:22;;;;;;;3.98;2.60;;;19.80;99.90;;;;;;1906607;74;21478;-77
2021/10/03 10:25:48;;;;;;;4.92;2.50;;;20.00;99.90;;;;;;1889220;73;21089;-76
2021/10/03 10:28:14;;;;;;;2.70;2.35;;;20.10;99.90;;;;;;1885204;74;21075;-77
2021/10/03 10:30:40;;;;;;;2.60;2.20;;;20.40;99.90;;;;;;1909060;74;21165;-79
2021/10/03 10:33:10;;;;;;;3.25;2.45;;;20.50;99.90;;;;;;1885763;74;21051;-78
2021/10/03 10:35:34;;;;;;;5.97;2.10;;;20.70;99.90;;;;;;1896597;75;21457;-78
2021/10/03 10:38:00;;;;;;;3.35;2.58;;;20.80;99.90;;;;;;1894118;73;21660;-80
2021/10/03 10:40:27;;;;;;;2.65;2.27;;;20.70;99.90;;;;;;1894378;74;21509;-81
2021/10/03 10:42:53;;;;;;;3.10;2.25;;;20.70;99.90;;;;;;1901666;74;21580;-82
2021/10/03 10:45:19;;;;;;;2.40;2.08;;;20.90;99.90;;;;;;1909265;74;21544;-83
2021/10/03 10:47:45;;;;;;;4.20;2.42;;;21.20;99.90;;;;;;1909268;73;21494;-83
2021/10/03 10:50:11;;;;;;;5.15;3.37;;;21.50;99.90;;;;;;1908724;74;21448;-82
2021/10/03 10:52:37;;;;;;;7.67;4.10;;;21.50;99.90;;;;;;1884674;73;21616;-84
2021/10/03 10:55:09;;;;;;;3.15;2.67;;;21.70;99.90;;;;;;1897403;74;21138;-83
2021/10/03 10:57:34;;;;;;;8.43;2.50;;;21.70;99.90;;;;;;1893587;74;21051;-84
2021/10/03 11:00:00;;;;;;;3.50;2.27;;;21.90;99.90;;;;;;1908995;74;21074;-83
2021/10/03 11:02:27;;;;;;;2.75;2.30;;;21.70;99.90;;;;;;1901967;74;21078;-82
2021/10/03 11:04:53;;;;;;;5.60;2.27;;;21.70;99.90;;;;;;1910762;74;21083;-83
2021/10/03 11:07:19;;;;;;;2.30;2.10;;;21.60;99.90;;;;;;1917754;73;21070;-83
2021/10/03 11:09:45;;;;;;;9.55;6.47;;;21.50;99.90;;;;;;1907595;73;21156;-84
2021/10/03 11:12:11;;;;;;;5.90;4.45;;;21.60;99.90;;;;;;1895915;74;21075;-84
2021/10/03 11:14:37;;;;;;;3.40;2.55;;;21.80;99.90;;;;;;1877705;74;21049;-83
2021/10/03 11:17:04;;;;;;;4.75;2.77;;;21.80;99.90;;;;;;1903738;74;21148;-83
2021/10/03 11:19:30;;;;;;;3.22;2.30;;;21.90;99.90;;;;;;1900837;74;21070;-84
2021/10/03 11:21:56;;;;;;;2.80;2.30;;;21.70;99.90;;;;;;1899044;73;21188;-82
2021/10/03 11:24:22;;;;;;;2.60;2.27;;;21.80;99.90;;;;;;1876876;75;21115;-83
2021/10/03 11:26:48;;;;;;;3.55;2.22;;;21.70;99.90;;;;;;1867897;74;21103;-83
2021/10/03 11:29:14;;;;;;;2.30;2.10;;;22.00;99.90;;;;;;1872466;75;21092;-82
2021/10/03 11:31:49;;;;;;;6.92;3.05;;;22.10;99.90;;;;;;1873888;75;21101;-82
2021/10/03 11:34:16;;;;;;;12.25;2.20;;;22.00;99.90;;;;;;1881306;73;21052;-79
2021/10/03 11:36:42;;;;;;;6.00;2.05;;;21.90;99.90;;;;;;1880414;75;21220;-82
2021/10/03 11:39:08;;;;;;;17.12;2.37;;;21.80;99.90;;;;;;1876846;75;21093;-83
2021/10/03 11:41:34;;;;;;;3.55;2.05;;;22.00;99.90;;;;;;1863581;75;21206;-83
2021/10/03 11:44:00;;;;;;;5.65;1.87;;;22.00;99.90;;;;;;1869756;75;21065;-83
2021/10/03 11:46:26;;;;;;;2.55;2.25;;;22.00;99.90;;;;;;1890330;76;21467;-82
2021/10/03 11:48:53;;;;;;;3.12;2.20;;;21.80;99.90;;;;;;1883017;75;21504;-83
2021/10/03 11:51:20;;;;;;;2.90;2.30;;;21.70;99.90;;;;;;1875607;75;21157;-83
2021/10/03 11:53:52;;;;;;;4.60;2.08;;;21.80;99.90;;;;;;1895742;74;21110;-82
2021/10/03 11:56:19;;;;;;;2.98;2.35;;;21.90;99.90;;;;;;1891417;74;21091;-83
2021/10/03 11:58:44;;;;;;;2.12;1.98;;;22.00;99.90;;;;;;1911762;74;21110;-81
2021/10/03 12:01:12;;;;;;;2.20;1.90;;;22.10;99.90;;;;;;1908104;74;21050;-82
2021/10/03 12:03:38;;;;;;;3.75;2.15;;;22.10;99.90;;;;;;1911111;74;21431;-83
2021/10/03 12:06:04;;;;;;;4.47;2.27;;;21.90;99.90;;;;;;1895765;74;21141;-83
2021/10/03 12:08:33;;;;;;;1.90;1.70;;;21.90;99.90;;;;;;1903132;74;21082;-82
2021/10/03 12:10:58;;;;;;;2.75;2.50;;;21.90;99.90;;;;;;1904422;74;21183;-83
2021/10/03 12:13:26;;;;;;;2.67;2.12;;;21.80;99.90;;;;;;1914362;74;21278;-82
2021/10/03 12:15:52;;;;;;;6.28;2.20;;;21.70;99.90;;;;;;1911571;74;21054;-82
2021/10/03 12:18:18;;;;;;;4.85;2.47;;;21.80;99.90;;;;;;1909607;74;21147;-83
2021/10/03 12:20:44;;;;;;;3.12;2.33;;;21.50;99.90;;;;;;1908358;74;21081;-83
2021/10/03 12:23:11;;;;;;;3.50;2.72;;;21.70;99.90;;;;;;1906994;74;21094;-83
2021/10/03 12:25:37;;;;;;;3.30;2.77;;;22.00;99.90;;;;;;1892047;74;21151;-83
2021/10/03 12:28:03;;;;;;;3.90;2.67;;;22.20;99.90;;;;;;1915350;74;21082;-83
2021/10/03 12:30:29;;;;;;;5.60;3.45;;;22.20;99.90;;;;;;1900878;74;21153;-83
2021/10/03 12:32:55;;;;;;;3.00;2.40;;;22.30;99.90;;;;;;1906332;73;21055;-84
2021/10/03 12:35:21;;;;;;;3.27;2.87;;;22.50;99.90;;;;;;1909268;74;21085;-83
2021/10/03 12:37:47;;;;;;;3.20;2.45;;;22.40;99.90;;;;;;1905903;74;21155;-83
2021/10/03 12:40:19;;;;;;;3.25;2.55;;;22.60;99.90;;;;;;1910751;74;21606;-84